createdAt,value
2023-09-30T00:00:33.776Z,8.90
2023-09-30T00:03:03.061Z,8.85
2023-09-30T00:05:32.004Z,8.57
2023-09-30T00:08:00.802Z,8.60
2023-09-30T00:10:31.507Z,8.85
2023-09-30T00:13:01.004Z,8.80
2023-09-30T00:15:29.903Z,9.02
2023-09-30T00:17:58.702Z,8.30
2023-09-30T00:20:27.522Z,9.10
2023-09-30T00:22:56.253Z,8.93
2023-09-30T00:25:25.053Z,9.02
2023-09-30T00:27:55.507Z,8.70
2023-09-30T00:30:24.276Z,8.98
2023-09-30T00:32:53.160Z,9.88
2023-09-30T00:35:22.094Z,8.27
2023-09-30T00:37:50.935Z,8.15
2023-09-30T00:40:20.321Z,8.70
2023-09-30T00:42:49.351Z,7.35
2023-09-30T00:45:19.779Z,7.00
2023-09-30T00:47:52.550Z,7.25
2023-09-30T00:50:23.085Z,6.60
2023-09-30T00:52:52.628Z,6.55
2023-09-30T00:55:22.611Z,6.82
2023-09-30T00:57:51.772Z,7.28
2023-09-30T01:00:22.606Z,6.10
2023-09-30T01:02:51.634Z,6.47
2023-09-30T01:05:20.547Z,6.00
2023-09-30T01:07:49.457Z,6.57
2023-09-30T01:10:18.313Z,6.45
2023-09-30T01:12:48.216Z,6.70
2023-09-30T01:15:17.105Z,6.47
2023-09-30T01:17:47.750Z,6.05
2023-09-30T01:20:18.412Z,6.13
2023-09-30T01:22:48.907Z,6.72
2023-09-30T01:25:18.564Z,6.97
2023-09-30T01:27:47.313Z,6.15
2023-09-30T01:30:16.761Z,6.90
2023-09-30T01:32:45.549Z,6.30
2023-09-30T01:35:14.326Z,6.47
2023-09-30T01:37:43.240Z,7.53
2023-09-30T01:40:14.102Z,6.88
2023-09-30T01:42:43.906Z,6.65
2023-09-30T01:45:13.347Z,6.63
2023-09-30T01:47:42.460Z,6.40
2023-09-30T01:50:11.890Z,6.47
2023-09-30T01:52:40.770Z,7.00
2023-09-30T01:55:10.300Z,6.72
2023-09-30T01:57:40.862Z,7.20
2023-09-30T02:00:11.296Z,6.45
2023-09-30T02:02:45.504Z,6.88
2023-09-30T02:05:14.481Z,6.78
2023-09-30T02:07:44.284Z,6.60
2023-09-30T02:10:13.514Z,6.65
2023-09-30T02:12:43.951Z,6.88
2023-09-30T02:15:15.315Z,7.13
2023-09-30T02:17:47.281Z,7.00
2023-09-30T02:20:20.609Z,6.47
2023-09-30T02:22:50.320Z,7.10
2023-09-30T02:25:19.122Z,7.10
2023-09-30T02:27:50.809Z,7.10
2023-09-30T02:30:20.482Z,6.28
2023-09-30T02:32:49.978Z,7.30
2023-09-30T02:35:19.244Z,7.28
2023-09-30T02:37:48.189Z,8.25
2023-09-30T02:40:18.301Z,7.60
2023-09-30T02:42:49.621Z,9.15
2023-09-30T02:45:19.608Z,8.70
2023-09-30T02:47:48.966Z,9.55
2023-09-30T02:50:17.781Z,9.35
2023-09-30T02:52:46.661Z,8.75
2023-09-30T02:55:15.588Z,9.20
2023-09-30T02:57:48.057Z,9.75
2023-09-30T03:00:25.189Z,10.02
2023-09-30T03:02:55.743Z,9.75
2023-09-30T03:05:25.393Z,9.50
2023-09-30T03:07:54.470Z,9.52
2023-09-30T03:10:25.231Z,9.30
2023-09-30T03:12:54.460Z,9.02
2023-09-30T03:15:25.836Z,9.35
2023-09-30T03:17:55.806Z,8.48
2023-09-30T03:20:26.247Z,8.65
2023-09-30T03:22:55.386Z,8.95
2023-09-30T03:25:24.413Z,9.55
2023-09-30T03:27:53.256Z,9.93
2023-09-30T03:30:22.350Z,9.93
2023-09-30T03:32:53.012Z,10.25
2023-09-30T03:35:22.814Z,10.23
2023-09-30T03:37:51.895Z,10.75
2023-09-30T03:40:21.361Z,11.02
2023-09-30T03:42:51.672Z,10.50
2023-09-30T03:45:21.086Z,10.20
2023-09-30T03:47:53.147Z,9.90
2023-09-30T03:50:24.828Z,10.60
2023-09-30T03:52:53.661Z,9.32
2023-09-30T03:55:24.425Z,8.98
2023-09-30T03:57:53.428Z,8.68
2023-09-30T04:00:23.054Z,8.55
2023-09-30T04:02:56.129Z,8.40
2023-09-30T04:05:30.984Z,8.05
2023-09-30T04:07:59.848Z,8.02
2023-09-30T04:10:31.022Z,7.38
2023-09-30T04:13:00.022Z,7.53
2023-09-30T04:15:29.237Z,7.10
2023-09-30T04:17:59.756Z,6.65
2023-09-30T04:20:28.566Z,7.03
2023-09-30T04:22:58.989Z,6.40
2023-09-30T04:25:28.279Z,6.25
2023-09-30T04:27:57.453Z,6.22
2023-09-30T04:30:27.361Z,5.45
2023-09-30T04:32:56.326Z,5.00
2023-09-30T04:35:27.809Z,5.32
2023-09-30T04:37:56.599Z,5.30
2023-09-30T04:40:25.446Z,4.72
2023-09-30T04:42:55.610Z,4.75
2023-09-30T04:45:25.897Z,4.78
2023-09-30T04:47:54.853Z,3.33
2023-09-30T04:50:23.969Z,2.90
2023-09-30T04:52:54.680Z,2.42
2023-09-30T04:55:23.597Z,1.50
2023-09-30T04:57:52.834Z,2.00
2023-09-30T05:00:26.832Z,1.83
2023-09-30T05:03:00.309Z,1.98
2023-09-30T05:05:29.926Z,2.03
2023-09-30T05:08:00.271Z,2.15
2023-09-30T05:10:29.985Z,2.10
2023-09-30T05:12:58.880Z,2.10
2023-09-30T05:15:30.403Z,2.13
2023-09-30T05:17:59.755Z,1.77
2023-09-30T05:20:28.600Z,2.38
2023-09-30T05:23:00.046Z,1.58
2023-09-30T05:25:29.213Z,1.85
2023-09-30T05:27:58.012Z,2.20
2023-09-30T05:30:27.132Z,2.20
2023-09-30T05:32:56.459Z,2.78
2023-09-30T05:35:25.678Z,1.95
2023-09-30T05:37:54.684Z,2.10
2023-09-30T05:40:29.133Z,2.60
2023-09-30T05:43:00.462Z,2.13
2023-09-30T05:45:35.673Z,2.47
2023-09-30T05:48:07.384Z,2.00
2023-09-30T05:50:37.942Z,2.28
2023-09-30T05:53:07.112Z,2.35
2023-09-30T05:55:37.726Z,2.15
2023-09-30T05:58:07.056Z,2.00
2023-09-30T06:00:36.873Z,2.20
2023-09-30T06:03:07.569Z,1.97
2023-09-30T06:05:36.791Z,2.33
2023-09-30T06:08:10.066Z,2.65
2023-09-30T06:10:47.403Z,2.63
2023-09-30T06:13:16.830Z,3.20
2023-09-30T06:15:48.185Z,3.05
2023-09-30T06:18:17.167Z,3.60
2023-09-30T06:20:45.920Z,3.80
2023-09-30T06:23:14.998Z,3.53
2023-09-30T06:25:45.376Z,2.78
2023-09-30T06:28:14.940Z,3.03
2023-09-30T06:30:46.741Z,3.53
2023-09-30T06:33:16.737Z,3.70
2023-09-30T06:35:51.756Z,3.03
2023-09-30T06:38:21.327Z,3.08
2023-09-30T06:40:51.554Z,3.35
2023-09-30T06:43:20.495Z,3.38
2023-09-30T06:45:50.031Z,3.03
2023-09-30T06:48:19.946Z,3.10
2023-09-30T06:50:50.206Z,2.67
2023-09-30T06:53:19.617Z,3.33
2023-09-30T06:55:49.831Z,3.03
2023-09-30T06:58:22.328Z,3.53
2023-09-30T07:00:52.254Z,3.40
2023-09-30T07:03:26.257Z,3.25
2023-09-30T07:05:57.624Z,3.40
2023-09-30T07:08:27.400Z,2.83
2023-09-30T07:10:56.037Z,3.00
2023-09-30T07:13:26.112Z,3.20
2023-09-30T07:15:55.349Z,3.15
2023-09-30T07:18:26.040Z,3.65
2023-09-30T07:20:54.977Z,3.60
2023-09-30T07:23:23.652Z,3.30
2023-09-30T07:25:52.561Z,3.28
2023-09-30T07:28:21.686Z,3.13
2023-09-30T07:30:51.689Z,3.55
2023-09-30T07:33:20.556Z,3.17
2023-09-30T07:35:49.294Z,3.15
2023-09-30T07:38:18.663Z,3.60
2023-09-30T07:40:49.375Z,3.42
2023-09-30T07:43:18.911Z,3.05
2023-09-30T07:45:47.761Z,2.97
2023-09-30T07:48:17.865Z,3.50
2023-09-30T07:50:48.368Z,3.38
2023-09-30T07:53:17.112Z,3.10
2023-09-30T07:55:45.843Z,3.10
2023-09-30T07:58:14.487Z,2.60
2023-09-30T08:00:45.579Z,3.38
2023-09-30T08:03:14.796Z,3.38
2023-09-30T08:05:44.951Z,3.60
2023-09-30T08:08:13.569Z,3.30
2023-09-30T08:10:45.511Z,3.55
2023-09-30T08:13:14.234Z,3.25
2023-09-30T08:15:43.158Z,3.03
2023-09-30T08:18:12.690Z,3.05
2023-09-30T08:20:41.520Z,3.25
2023-09-30T08:23:12.741Z,3.60
2023-09-30T08:25:41.579Z,3.45
2023-09-30T08:28:11.136Z,3.65
2023-09-30T08:30:40.124Z,3.63
2023-09-30T08:33:09.022Z,3.03
2023-09-30T08:35:39.371Z,3.30
2023-09-30T08:38:08.029Z,2.70
2023-09-30T08:40:40.129Z,3.50
2023-09-30T08:43:13.741Z,3.05
2023-09-30T08:45:46.385Z,2.95
2023-09-30T08:48:15.636Z,3.10
2023-09-30T08:50:45.946Z,3.38
2023-09-30T08:53:17.304Z,3.10
2023-09-30T08:55:48.649Z,2.80
2023-09-30T08:58:18.330Z,2.97
2023-09-30T09:00:49.726Z,2.90
2023-09-30T09:03:20.655Z,3.00
2023-09-30T09:05:55.335Z,3.17
2023-09-30T09:08:25.098Z,3.45
2023-09-30T09:10:59.701Z,2.63
2023-09-30T09:13:28.962Z,2.33
2023-09-30T09:16:10.653Z,2.50
2023-09-30T09:18:40.183Z,2.63
2023-09-30T09:21:14.170Z,3.33
2023-09-30T09:23:44.781Z,3.13
2023-09-30T09:26:26.295Z,2.75
2023-09-30T09:28:59.513Z,2.67
2023-09-30T09:31:29.671Z,3.00
2023-09-30T09:34:00.391Z,3.28
2023-09-30T09:36:42.354Z,3.05
2023-09-30T09:39:14.210Z,2.55
2023-09-30T09:41:53.617Z,2.80
2023-09-30T09:44:24.933Z,2.65
2023-09-30T09:46:53.874Z,2.67
2023-09-30T09:49:23.408Z,2.60
2023-09-30T09:51:53.741Z,2.72
2023-09-30T09:54:24.932Z,2.40
2023-09-30T09:56:58.621Z,2.30
2023-09-30T09:59:28.119Z,2.53
2023-09-30T10:01:57.756Z,2.70
2023-09-30T10:04:26.839Z,3.70
2023-09-30T10:06:57.680Z,2.78
2023-09-30T10:09:27.134Z,2.45
2023-09-30T10:12:01.985Z,2.28
2023-09-30T10:14:35.085Z,2.40
2023-09-30T10:17:04.901Z,2.05
2023-09-30T10:19:33.748Z,2.25
2023-09-30T10:22:24.074Z,2.10
2023-09-30T10:24:57.677Z,2.42
2023-09-30T10:27:41.077Z,2.30
2023-09-30T10:30:18.189Z,1.80
2023-09-30T10:33:17.785Z,2.72
2023-09-30T10:35:48.918Z,2.17
2023-09-30T10:38:42.763Z,2.58
2023-09-30T10:41:13.172Z,1.88
2023-09-30T10:43:44.121Z,2.88
2023-09-30T10:46:36.758Z,1.92
2023-09-30T10:49:19.783Z,2.30
2023-09-30T10:51:49.091Z,2.42
2023-09-30T10:54:25.615Z,2.78
2023-09-30T10:56:54.800Z,2.22
2023-09-30T10:59:25.823Z,2.65
2023-09-30T11:01:55.402Z,2.50
2023-09-30T11:04:24.873Z,2.00
2023-09-30T11:06:53.836Z,1.92
2023-09-30T11:09:23.916Z,2.08
2023-09-30T11:11:55.270Z,2.22
2023-09-30T11:14:29.910Z,2.30
2023-09-30T11:17:02.503Z,2.17
2023-09-30T11:19:37.244Z,1.80
2023-09-30T11:22:06.918Z,2.00
2023-09-30T11:24:38.558Z,2.05
2023-09-30T11:27:07.963Z,2.38
2023-09-30T11:29:38.084Z,2.35
2023-09-30T11:32:06.828Z,2.10
2023-09-30T11:34:37.153Z,2.03
2023-09-30T11:37:06.718Z,1.80
2023-09-30T11:39:35.873Z,2.22
2023-09-30T11:42:14.649Z,2.25
2023-09-30T11:44:50.265Z,2.15
2023-09-30T11:47:31.042Z,2.13
2023-09-30T11:49:59.860Z,2.05
2023-09-30T11:52:29.537Z,2.20
2023-09-30T11:54:59.235Z,1.88
2023-09-30T11:57:28.118Z,2.13
2023-09-30T11:59:58.554Z,2.45
2023-09-30T12:02:28.051Z,2.38
2023-09-30T12:04:56.947Z,1.98
2023-09-30T12:07:25.678Z,2.42
2023-09-30T12:09:54.476Z,2.05
2023-09-30T12:12:23.242Z,2.00
2023-09-30T12:14:52.058Z,1.95
2023-09-30T12:17:23.618Z,1.70
2023-09-30T12:19:52.594Z,2.20
2023-09-30T12:22:21.722Z,2.22
2023-09-30T12:24:50.574Z,2.00
2023-09-30T12:27:19.547Z,2.03
2023-09-30T12:29:49.664Z,1.80
2023-09-30T12:32:18.413Z,1.80
2023-09-30T12:34:48.693Z,1.90
2023-09-30T12:37:17.425Z,1.90
2023-09-30T12:39:46.316Z,2.00
2023-09-30T12:42:15.842Z,2.22
2023-09-30T12:44:44.894Z,2.40
2023-09-30T12:47:14.014Z,2.20
2023-09-30T12:49:42.987Z,2.10
2023-09-30T12:52:13.690Z,2.10
2023-09-30T12:54:42.665Z,2.00
2023-09-30T12:57:13.962Z,2.30
2023-09-30T12:59:42.834Z,3.17
2023-09-30T13:02:12.661Z,2.17
2023-09-30T13:04:44.348Z,2.45
2023-09-30T13:07:14.898Z,2.60
2023-09-30T13:09:44.404Z,2.13
2023-09-30T13:12:13.246Z,1.95
2023-09-30T13:14:41.953Z,2.25
2023-09-30T13:17:14.021Z,2.50
2023-09-30T13:19:43.867Z,2.47
2023-09-30T13:22:17.683Z,2.00
2023-09-30T13:24:48.105Z,2.45
2023-09-30T13:27:18.116Z,1.85
2023-09-30T13:29:47.873Z,2.53
2023-09-30T13:32:19.729Z,2.03
2023-09-30T13:34:49.768Z,2.42
2023-09-30T13:37:20.161Z,2.60
2023-09-30T13:39:51.240Z,2.47
2023-09-30T13:42:20.034Z,2.20
2023-09-30T13:44:49.076Z,1.90
2023-09-30T13:47:17.984Z,2.42
2023-09-30T13:49:47.423Z,2.10
2023-09-30T13:52:16.034Z,2.10
2023-09-30T13:54:46.102Z,2.05
2023-09-30T13:57:15.285Z,2.25
2023-09-30T13:59:44.358Z,2.05
2023-09-30T14:02:13.569Z,1.90
2023-09-30T14:04:42.697Z,2.05
2023-09-30T14:07:11.508Z,2.05
2023-09-30T14:09:40.281Z,2.15
2023-09-30T14:12:10.442Z,2.03
2023-09-30T14:14:39.112Z,1.83
2023-09-30T14:17:11.083Z,1.98
2023-09-30T14:19:41.708Z,2.38
2023-09-30T14:22:10.720Z,2.00
2023-09-30T14:24:39.447Z,1.80
2023-09-30T14:27:08.548Z,1.90
2023-09-30T14:29:38.658Z,2.00
2023-09-30T14:32:08.209Z,1.92
2023-09-30T14:34:36.961Z,2.03
2023-09-30T14:37:05.898Z,1.90
2023-09-30T14:39:34.718Z,2.45
2023-09-30T14:42:03.850Z,2.03
2023-09-30T14:44:32.476Z,2.00
2023-09-30T14:47:02.831Z,2.10
2023-09-30T14:49:33.080Z,1.90
2023-09-30T14:52:01.990Z,2.33
2023-09-30T14:54:30.705Z,1.88
2023-09-30T14:56:59.483Z,2.03
2023-09-30T14:59:28.282Z,2.13
2023-09-30T15:01:58.703Z,2.15
2023-09-30T15:04:29.152Z,2.10
2023-09-30T15:06:58.161Z,2.30
2023-09-30T15:09:27.177Z,2.20
2023-09-30T15:11:56.350Z,2.28
2023-09-30T15:14:25.051Z,2.35
2023-09-30T15:16:53.966Z,2.00
2023-09-30T15:19:22.974Z,2.03
2023-09-30T15:21:53.408Z,2.08
2023-09-30T15:24:22.474Z,1.92
2023-09-30T15:26:51.244Z,2.00
2023-09-30T15:29:20.137Z,2.30
2023-09-30T15:31:48.808Z,2.03
2023-09-30T15:34:17.607Z,2.65
2023-09-30T15:36:46.474Z,2.63
2023-09-30T15:39:17.072Z,2.30
2023-09-30T15:41:45.870Z,2.17
2023-09-30T15:44:14.466Z,2.22
2023-09-30T15:46:43.329Z,2.83
2023-09-30T15:49:12.089Z,2.38
2023-09-30T15:51:40.926Z,3.10
2023-09-30T15:54:09.766Z,2.60
2023-09-30T15:56:53.967Z,2.10
2023-09-30T15:59:25.286Z,2.47
2023-09-30T16:01:54.093Z,2.28
2023-09-30T16:04:23.088Z,2.42
2023-09-30T16:06:52.016Z,2.20
2023-09-30T16:09:20.680Z,2.17
2023-09-30T16:11:50.803Z,2.30
2023-09-30T16:14:19.571Z,2.40
2023-09-30T16:16:48.272Z,2.47
2023-09-30T16:19:16.971Z,3.22
2023-09-30T16:21:45.798Z,7.95
2023-09-30T16:24:14.961Z,13.02
2023-09-30T16:26:43.738Z,10.25
2023-09-30T16:29:13.858Z,6.65
2023-09-30T16:31:42.778Z,5.20
2023-09-30T16:34:11.580Z,3.45
2023-09-30T16:36:41.002Z,3.15
2023-09-30T16:39:09.856Z,2.20
2023-09-30T16:41:39.261Z,2.17
2023-09-30T16:44:08.782Z,2.75
2023-09-30T16:46:39.837Z,2.70
2023-09-30T16:49:10.124Z,3.20
2023-09-30T16:51:38.980Z,4.80
2023-09-30T16:54:08.078Z,4.22
2023-09-30T16:56:36.853Z,3.38
2023-09-30T16:59:05.654Z,3.42
2023-09-30T17:01:34.692Z,2.90
2023-09-30T17:04:05.181Z,3.50
2023-09-30T17:06:34.430Z,3.08
2023-09-30T17:09:03.207Z,2.95
2023-09-30T17:11:32.090Z,3.13
2023-09-30T17:14:00.979Z,3.22
2023-09-30T17:16:29.790Z,3.28
2023-09-30T17:18:59.043Z,3.20
2023-09-30T17:21:29.450Z,3.13
2023-09-30T17:23:58.318Z,2.50
2023-09-30T17:26:27.482Z,3.10
2023-09-30T17:28:56.180Z,2.28
2023-09-30T17:31:26.175Z,2.30
2023-09-30T17:33:55.033Z,2.80
2023-09-30T17:36:23.724Z,2.30
2023-09-30T17:38:54.265Z,2.30
2023-09-30T17:41:22.950Z,2.30
2023-09-30T17:43:51.621Z,2.67
2023-09-30T17:46:20.701Z,2.70
2023-09-30T17:48:49.870Z,2.97
2023-09-30T17:51:20.923Z,2.73
2023-09-30T17:53:50.578Z,3.33
2023-09-30T17:56:23.657Z,3.27
2023-09-30T17:58:53.806Z,2.77
2023-09-30T18:01:24.092Z,2.90
2023-09-30T18:03:54.387Z,3.17
2023-09-30T18:06:23.693Z,2.97
2023-09-30T18:08:52.466Z,3.07
2023-09-30T18:11:23.305Z,3.67
2023-09-30T18:13:54.107Z,3.83
2023-09-30T18:16:24.248Z,3.60
2023-09-30T18:18:53.403Z,3.73
2023-09-30T18:21:22.271Z,3.73
2023-09-30T18:23:51.181Z,3.80
2023-09-30T18:26:19.868Z,4.18
2023-09-30T18:28:50.011Z,4.47
2023-09-30T18:31:21.947Z,3.63
2023-09-30T18:33:50.905Z,5.03
2023-09-30T18:36:20.772Z,4.27
2023-09-30T18:38:49.565Z,3.93
2023-09-30T18:41:19.687Z,3.50
2023-09-30T18:43:49.748Z,4.17
2023-09-30T18:46:19.477Z,3.73
2023-09-30T18:48:49.669Z,3.67
2023-09-30T18:51:21.365Z,3.60
2023-09-30T18:53:50.186Z,3.87
2023-09-30T18:56:22.867Z,3.63
2023-09-30T18:58:53.315Z,3.47
2023-09-30T19:01:22.630Z,4.07
2023-09-30T19:03:51.510Z,3.70
2023-09-30T19:06:20.461Z,5.00
2023-09-30T19:08:49.304Z,4.27
2023-09-30T19:11:19.360Z,3.77
2023-09-30T19:13:48.195Z,4.00
2023-09-30T19:16:18.745Z,3.83
2023-09-30T19:18:47.766Z,3.50
2023-09-30T19:21:16.760Z,3.37
2023-09-30T19:23:45.963Z,4.53
2023-09-30T19:26:15.865Z,3.20
2023-09-30T19:28:45.489Z,3.77
2023-09-30T19:31:14.876Z,3.60
2023-09-30T19:33:47.120Z,3.57
2023-09-30T19:36:16.160Z,3.60
2023-09-30T19:38:44.835Z,3.30
2023-09-30T19:41:17.276Z,3.40
2023-09-30T19:43:46.402Z,4.30
2023-09-30T19:46:16.642Z,4.97
2023-09-30T19:48:46.819Z,5.47
2023-09-30T19:51:24.569Z,7.37
2023-09-30T19:53:53.465Z,8.17
2023-09-30T19:56:22.063Z,7.20
2023-09-30T19:58:50.974Z,6.00
2023-09-30T20:01:21.407Z,5.47
2023-09-30T20:03:53.398Z,4.80
2023-09-30T20:06:24.178Z,4.97
2023-09-30T20:08:54.091Z,4.77
2023-09-30T20:11:25.043Z,5.33
2023-09-30T20:13:54.549Z,4.70
2023-09-30T20:16:23.973Z,4.50
2023-09-30T20:18:54.928Z,4.47
2023-09-30T20:21:23.985Z,4.90
2023-09-30T20:23:54.775Z,4.90
2023-09-30T20:26:25.235Z,4.40
2023-09-30T20:28:55.569Z,4.60
2023-09-30T20:31:24.543Z,4.47
2023-09-30T20:33:54.826Z,4.57
2023-09-30T20:36:26.038Z,4.70
2023-09-30T20:38:54.999Z,4.27
2023-09-30T20:41:25.254Z,3.73
2023-09-30T20:43:53.518Z,4.30
2023-09-30T20:46:22.256Z,4.57
2023-09-30T20:48:51.801Z,4.30
2023-09-30T20:51:22.205Z,3.67
2023-09-30T20:53:51.537Z,3.47
2023-09-30T20:56:21.248Z,4.17
2023-09-30T20:58:51.379Z,4.30
2023-09-30T21:01:20.612Z,4.53
2023-09-30T21:03:50.571Z,4.20
2023-09-30T21:06:19.531Z,4.33
2023-09-30T21:08:52.293Z,4.30
2023-09-30T21:11:21.531Z,4.40
2023-09-30T21:13:51.452Z,4.13
2023-09-30T21:16:22.893Z,4.20
2023-09-30T21:18:53.345Z,4.50
2023-09-30T21:21:22.725Z,4.13
2023-09-30T21:23:52.906Z,4.23
2023-09-30T21:26:22.216Z,4.33
2023-09-30T21:28:51.026Z,4.70
2023-09-30T21:31:20.827Z,3.97
2023-09-30T21:33:50.814Z,4.23
2023-09-30T21:36:20.583Z,3.80
2023-09-30T21:38:50.778Z,4.40
2023-09-30T21:41:22.189Z,4.37
2023-09-30T21:43:52.276Z,4.40
2023-09-30T21:46:21.393Z,4.47
2023-09-30T21:48:50.225Z,4.80
2023-09-30T21:51:19.712Z,4.20
2023-09-30T21:53:48.616Z,5.20
2023-09-30T21:56:17.424Z,5.20
2023-09-30T21:58:48.061Z,4.97
2023-09-30T22:01:17.038Z,4.53
2023-09-30T22:03:47.134Z,4.77
2023-09-30T22:06:16.279Z,4.60
2023-09-30T22:08:45.072Z,4.97
2023-09-30T22:11:14.927Z,4.50
2023-09-30T22:13:44.666Z,4.47
2023-09-30T22:16:14.752Z,4.30
2023-09-30T22:18:45.055Z,4.63
2023-09-30T22:21:14.516Z,4.57
2023-09-30T22:23:43.541Z,4.80
2023-09-30T22:26:13.038Z,4.77
2023-09-30T22:28:42.477Z,4.90
2023-09-30T22:31:11.274Z,4.43
2023-09-30T22:33:41.729Z,5.07
2023-09-30T22:36:10.987Z,4.87
2023-09-30T22:38:40.556Z,5.17
2023-09-30T22:41:12.151Z,4.27
2023-09-30T22:43:40.992Z,4.60
2023-09-30T22:46:11.436Z,5.43
2023-09-30T22:48:42.237Z,5.20
2023-09-30T22:51:12.185Z,5.17
2023-09-30T22:53:44.911Z,4.70
2023-09-30T22:56:18.333Z,5.03
2023-09-30T22:58:47.049Z,4.67
2023-09-30T23:01:23.445Z,4.87
2023-09-30T23:03:54.311Z,4.17
2023-09-30T23:06:23.959Z,4.40
2023-09-30T23:08:53.493Z,4.53
2023-09-30T23:11:22.337Z,4.40
2023-09-30T23:13:52.448Z,4.40
2023-09-30T23:16:21.420Z,4.57
2023-09-30T23:18:50.899Z,5.03
2023-09-30T23:21:22.110Z,4.40
2023-09-30T23:23:51.684Z,4.60
2023-09-30T23:26:23.552Z,4.70
2023-09-30T23:28:52.446Z,4.47
2023-09-30T23:31:24.705Z,5.17
2023-09-30T23:33:54.035Z,4.47
2023-09-30T23:36:24.111Z,4.57
2023-09-30T23:38:54.922Z,4.00
2023-09-30T23:41:25.032Z,4.57
2023-09-30T23:43:55.694Z,4.90
2023-09-30T23:46:24.806Z,4.87
2023-09-30T23:48:54.152Z,4.50
2023-09-30T23:51:24.584Z,5.10
2023-09-30T23:53:53.946Z,4.27
2023-09-30T23:56:22.769Z,4.30
2023-09-30T23:58:51.393Z,4.93
